createdAt,value
2023-01-31T00:01:40.487Z,1.75
2023-01-31T00:04:41.985Z,1.71
2023-01-31T00:07:43.561Z,1.68
2023-01-31T00:10:44.999Z,1.65
2023-01-31T00:13:47.034Z,1.73
2023-01-31T00:16:48.642Z,1.81
2023-01-31T00:19:50.056Z,1.77
2023-01-31T00:22:51.559Z,1.93
2023-01-31T00:25:53.005Z,1.98
2023-01-31T00:28:55.683Z,2.21
2023-01-31T00:31:57.318Z,2.19
2023-01-31T00:34:58.846Z,2.19
2023-01-31T00:38:00.570Z,2.09
2023-01-31T00:41:02.773Z,2.20
2023-01-31T00:44:05.360Z,2.10
2023-01-31T00:47:06.808Z,1.98
2023-01-31T00:50:09.946Z,2.10
2023-01-31T00:53:11.534Z,2.15
2023-01-31T00:56:15.678Z,2.11
2023-01-31T00:59:17.236Z,2.11
2023-01-31T01:02:18.730Z,2.05
2023-01-31T01:05:20.653Z,2.07
2023-01-31T01:08:22.352Z,1.95
2023-01-31T01:11:27.614Z,1.92
2023-01-31T01:14:29.160Z,1.97
2023-01-31T01:17:30.714Z,2.09
2023-01-31T01:20:34.883Z,2.26
2023-01-31T01:23:37.796Z,2.11
2023-01-31T01:26:39.411Z,2.05
2023-01-31T01:29:40.986Z,1.96
2023-01-31T01:32:42.442Z,1.91
2023-01-31T01:35:44.043Z,1.96
2023-01-31T01:38:45.804Z,2.15
2023-01-31T01:41:47.808Z,2.15
2023-01-31T01:44:54.029Z,2.21
2023-01-31T01:48:01.023Z,2.30
2023-01-31T01:51:05.355Z,2.41
2023-01-31T01:54:15.905Z,2.55
2023-01-31T01:57:24.357Z,2.65
2023-01-31T02:00:29.145Z,2.67
2023-01-31T02:03:30.933Z,2.88
2023-01-31T02:06:36.060Z,3.00
2023-01-31T02:10:01.612Z,3.18
2023-01-31T02:13:04.066Z,3.20
2023-01-31T02:16:05.880Z,3.25
2023-01-31T02:19:19.581Z,3.30
2023-01-31T02:22:46.001Z,3.38
2023-01-31T02:25:52.645Z,3.57
2023-01-31T02:29:16.289Z,3.51
2023-01-31T02:32:35.968Z,3.56
2023-01-31T02:35:46.711Z,3.43
2023-01-31T02:38:54.128Z,3.41
2023-01-31T02:42:26.589Z,3.45
2023-01-31T02:45:38.158Z,3.45
2023-01-31T02:48:57.888Z,3.38
2023-01-31T02:52:06.291Z,3.40
2023-01-31T02:55:26.760Z,3.45
2023-01-31T02:58:33.361Z,3.51
2023-01-31T03:01:48.311Z,3.59
2023-01-31T03:04:50.153Z,3.66
2023-01-31T03:07:59.870Z,3.67
2023-01-31T03:11:06.126Z,3.69
2023-01-31T03:14:31.912Z,3.63
2023-01-31T03:17:58.721Z,3.61
2023-01-31T03:21:25.410Z,3.77
2023-01-31T03:24:27.760Z,3.87
2023-01-31T03:27:29.907Z,3.95
2023-01-31T03:30:47.559Z,3.88
2023-01-31T03:33:53.657Z,3.79
2023-01-31T03:37:03.270Z,3.85
2023-01-31T03:40:24.349Z,3.79
2023-01-31T03:43:33.032Z,3.77
2023-01-31T03:46:42.953Z,3.79
2023-01-31T03:49:47.102Z,3.76
2023-01-31T03:53:15.039Z,3.69
2023-01-31T03:56:32.645Z,3.59
2023-01-31T03:59:39.485Z,3.56
2023-01-31T04:02:42.636Z,3.61
2023-01-31T04:05:45.254Z,3.63
2023-01-31T04:08:47.659Z,3.80
2023-01-31T04:11:51.047Z,3.96
2023-01-31T04:14:52.562Z,4.03
2023-01-31T04:17:54.245Z,4.09
2023-01-31T04:20:55.894Z,4.13
2023-01-31T04:23:57.390Z,4.12
2023-01-31T04:26:58.930Z,4.13
2023-01-31T04:30:00.507Z,4.20
2023-01-31T04:33:02.127Z,4.30
2023-01-31T04:36:04.084Z,4.32
2023-01-31T04:39:05.604Z,4.34
2023-01-31T04:42:07.130Z,4.37
2023-01-31T04:45:09.255Z,4.39
2023-01-31T04:48:10.761Z,4.43
2023-01-31T04:51:12.322Z,4.48
2023-01-31T04:54:13.836Z,4.46
2023-01-31T04:57:15.422Z,4.46
2023-01-31T05:00:17.974Z,4.44
2023-01-31T05:03:19.452Z,4.41
2023-01-31T05:06:20.924Z,4.37
2023-01-31T05:09:22.402Z,4.39
2023-01-31T05:12:23.991Z,4.43
2023-01-31T05:15:25.975Z,4.47
2023-01-31T05:18:27.496Z,4.53
2023-01-31T05:21:28.972Z,4.56
2023-01-31T05:24:32.725Z,4.54
2023-01-31T05:27:34.245Z,4.57
2023-01-31T05:30:36.224Z,4.59
2023-01-31T05:33:37.903Z,4.57
2023-01-31T05:36:39.445Z,4.57
2023-01-31T05:39:40.903Z,4.58
2023-01-31T05:42:43.176Z,4.50
2023-01-31T05:45:44.775Z,4.53
2023-01-31T05:48:46.267Z,4.56
2023-01-31T05:51:47.773Z,4.54
2023-01-31T05:54:49.292Z,4.58
2023-01-31T05:57:53.370Z,4.57
2023-01-31T06:00:56.171Z,4.58
2023-01-31T06:03:57.707Z,4.49
2023-01-31T06:06:59.188Z,4.45
2023-01-31T06:10:02.334Z,4.44
2023-01-31T06:13:03.841Z,4.49
2023-01-31T06:16:06.144Z,4.47
2023-01-31T06:19:07.684Z,4.53
2023-01-31T06:22:09.222Z,4.61
2023-01-31T06:25:10.756Z,4.58
2023-01-31T06:28:12.241Z,4.58
2023-01-31T06:31:13.921Z,4.59
2023-01-31T06:34:25.501Z,4.55
2023-01-31T06:37:27.121Z,4.53
2023-01-31T06:40:28.643Z,4.52
2023-01-31T06:43:30.449Z,4.53
2023-01-31T06:46:32.986Z,4.51
2023-01-31T06:49:34.541Z,4.53
2023-01-31T06:52:36.056Z,4.50
2023-01-31T06:55:38.600Z,4.58
2023-01-31T06:58:40.054Z,4.59
2023-01-31T07:01:41.539Z,4.57
2023-01-31T07:04:43.054Z,4.67
2023-01-31T07:07:44.540Z,4.65
2023-01-31T07:10:48.339Z,4.71
2023-01-31T07:13:49.843Z,4.71
2023-01-31T07:16:51.688Z,4.66
2023-01-31T07:19:53.259Z,4.71
2023-01-31T07:22:56.929Z,4.68
2023-01-31T07:25:58.483Z,4.76
2023-01-31T07:28:59.946Z,4.73
2023-01-31T07:32:01.436Z,4.67
2023-01-31T07:35:02.983Z,4.65
2023-01-31T07:38:04.469Z,4.63
2023-01-31T07:41:06.149Z,4.70
2023-01-31T07:44:07.695Z,4.81
2023-01-31T07:47:09.112Z,4.81
2023-01-31T07:50:11.471Z,4.84
2023-01-31T07:53:12.981Z,4.98
2023-01-31T07:56:16.949Z,5.07
2023-01-31T07:59:18.556Z,5.13
2023-01-31T08:02:20.023Z,5.12
2023-01-31T08:05:21.914Z,5.05
2023-01-31T08:08:23.615Z,4.97
2023-01-31T08:11:25.215Z,4.91
2023-01-31T08:14:26.678Z,4.89
2023-01-31T08:17:28.170Z,4.93
2023-01-31T08:20:29.716Z,4.98
2023-01-31T08:23:31.976Z,4.98
2023-01-31T08:26:33.672Z,4.99
2023-01-31T08:29:36.110Z,4.95
2023-01-31T08:32:37.565Z,4.83
2023-01-31T08:35:39.066Z,4.78
2023-01-31T08:38:40.698Z,4.74
2023-01-31T08:41:42.692Z,4.71
2023-01-31T08:44:44.274Z,4.73
2023-01-31T08:47:45.829Z,4.90
2023-01-31T08:50:47.474Z,5.04
2023-01-31T08:53:49.289Z,5.17
2023-01-31T08:56:50.767Z,5.24
2023-01-31T08:59:52.209Z,5.27
2023-01-31T09:02:59.071Z,5.32
2023-01-31T09:06:01.934Z,5.28
2023-01-31T09:09:03.537Z,5.21
2023-01-31T09:12:05.227Z,5.32
2023-01-31T09:15:07.323Z,5.44
2023-01-31T09:18:08.858Z,5.51
2023-01-31T09:21:20.971Z,5.61
2023-01-31T09:24:22.418Z,5.79
2023-01-31T09:27:23.837Z,5.95
2023-01-31T09:30:25.300Z,6.07
2023-01-31T09:33:26.734Z,6.07
2023-01-31T09:36:28.642Z,5.94
2023-01-31T09:39:30.127Z,5.87
2023-01-31T09:42:36.993Z,5.77
2023-01-31T09:45:42.406Z,5.73
2023-01-31T09:48:49.035Z,5.81
2023-01-31T09:52:03.890Z,5.90
2023-01-31T09:55:06.215Z,6.00
2023-01-31T09:58:28.518Z,6.02
2023-01-31T10:01:38.653Z,6.05
2023-01-31T10:05:02.528Z,6.10
2023-01-31T10:08:10.027Z,6.20
2023-01-31T10:11:26.431Z,6.36
2023-01-31T10:14:36.736Z,6.53
2023-01-31T10:17:42.845Z,6.58
2023-01-31T10:21:15.292Z,6.56
2023-01-31T10:24:32.573Z,6.54
2023-01-31T10:27:47.520Z,6.44
2023-01-31T10:30:55.091Z,6.48
2023-01-31T10:34:17.257Z,6.54
2023-01-31T10:37:56.446Z,6.57
2023-01-31T10:41:11.402Z,6.62
2023-01-31T10:44:24.115Z,6.72
2023-01-31T10:47:33.168Z,6.65
2023-01-31T10:51:01.321Z,6.58
2023-01-31T10:54:24.741Z,6.50
2023-01-31T10:57:26.448Z,6.48
2023-01-31T11:00:31.372Z,6.53
2023-01-31T11:03:32.832Z,6.55
2023-01-31T11:06:34.362Z,6.57
2023-01-31T11:09:43.180Z,6.65
2023-01-31T11:12:59.357Z,6.71
2023-01-31T11:16:02.942Z,6.82
2023-01-31T11:19:18.156Z,6.85
2023-01-31T11:22:31.205Z,6.91
2023-01-31T11:25:34.427Z,6.93
2023-01-31T11:28:40.260Z,6.99
2023-01-31T11:31:43.509Z,7.04
2023-01-31T11:35:05.596Z,7.05
2023-01-31T11:38:10.014Z,7.11
2023-01-31T11:41:33.355Z,7.09
2023-01-31T11:44:34.824Z,7.09
2023-01-31T11:47:45.518Z,7.06
2023-01-31T11:50:53.836Z,7.05
2023-01-31T11:53:56.483Z,7.04
2023-01-31T11:57:00.299Z,7.11
2023-01-31T12:00:06.516Z,7.09
2023-01-31T12:03:15.919Z,7.13
2023-01-31T12:06:37.275Z,7.24
2023-01-31T12:09:43.691Z,7.20
2023-01-31T12:12:48.014Z,7.20
2023-01-31T12:16:01.481Z,7.28
2023-01-31T12:19:24.785Z,7.30
2023-01-31T12:22:34.036Z,7.34
2023-01-31T12:26:01.470Z,7.36
2023-01-31T12:29:27.570Z,7.42
2023-01-31T12:32:56.536Z,7.61
2023-01-31T12:36:16.133Z,7.63
2023-01-31T12:39:34.064Z,7.59
2023-01-31T12:42:47.623Z,7.61
2023-01-31T12:45:58.352Z,7.72
2023-01-31T12:49:29.418Z,7.72
2023-01-31T12:52:42.945Z,7.83
2023-01-31T12:56:01.212Z,7.84
2023-01-31T12:59:16.959Z,7.86
2023-01-31T13:02:39.589Z,7.89
2023-01-31T13:06:03.323Z,7.90
2023-01-31T13:09:13.083Z,8.05
2023-01-31T13:12:18.400Z,7.91
2023-01-31T13:15:40.709Z,7.93
2023-01-31T13:18:45.931Z,8.13
2023-01-31T13:21:52.232Z,8.18
2023-01-31T13:25:30.003Z,8.19
2023-01-31T13:28:37.859Z,8.39
2023-01-31T13:32:11.638Z,8.46
2023-01-31T13:35:26.811Z,8.38
2023-01-31T13:38:35.954Z,8.35
2023-01-31T13:41:37.478Z,8.48
2023-01-31T13:44:39.004Z,8.33
2023-01-31T13:47:57.577Z,8.26
2023-01-31T13:51:07.093Z,8.23
2023-01-31T13:54:41.321Z,8.13
2023-01-31T13:57:46.061Z,8.12
2023-01-31T14:00:56.354Z,8.27
2023-01-31T14:04:20.384Z,8.18
2023-01-31T14:07:22.689Z,8.34
2023-01-31T14:10:26.600Z,8.30
2023-01-31T14:13:28.002Z,8.38
2023-01-31T14:16:42.841Z,8.36
2023-01-31T14:19:44.235Z,8.42
2023-01-31T14:23:27.940Z,8.33
2023-01-31T14:26:35.320Z,8.32
2023-01-31T14:29:42.680Z,8.27
2023-01-31T14:32:49.113Z,8.31
2023-01-31T14:36:35.222Z,8.34
2023-01-31T14:39:49.401Z,8.26
2023-01-31T14:42:58.900Z,8.25
2023-01-31T14:46:12.621Z,8.30
2023-01-31T14:49:43.845Z,8.42
2023-01-31T14:53:21.655Z,8.25
2023-01-31T14:56:45.595Z,7.97
2023-01-31T15:00:23.404Z,7.98
2023-01-31T15:03:31.541Z,7.96
2023-01-31T15:06:36.815Z,8.08
2023-01-31T15:09:39.480Z,8.06
2023-01-31T15:12:56.921Z,7.98
2023-01-31T15:15:58.789Z,7.95
2023-01-31T15:19:07.808Z,7.89
2023-01-31T15:22:11.581Z,7.87
2023-01-31T15:25:40.782Z,7.92
2023-01-31T15:28:43.702Z,7.87
2023-01-31T15:31:48.660Z,7.85
2023-01-31T15:34:59.006Z,7.85
2023-01-31T15:38:26.792Z,7.87
2023-01-31T15:41:35.399Z,7.84
2023-01-31T15:44:36.922Z,7.86
2023-01-31T15:47:38.507Z,7.80
2023-01-31T15:50:55.953Z,7.92
2023-01-31T15:54:05.886Z,7.79
2023-01-31T15:57:15.513Z,7.64
2023-01-31T16:00:23.202Z,7.56
2023-01-31T16:03:28.440Z,7.48
2023-01-31T16:06:35.838Z,7.51
2023-01-31T16:09:37.576Z,7.47
2023-01-31T16:12:43.583Z,7.42
2023-01-31T16:15:45.567Z,7.45
2023-01-31T16:18:58.935Z,7.42
2023-01-31T16:22:00.475Z,7.35
2023-01-31T16:25:04.331Z,7.26
2023-01-31T16:28:11.181Z,7.13
2023-01-31T16:31:16.665Z,7.00
2023-01-31T16:34:35.290Z,6.89
2023-01-31T16:37:39.416Z,6.83
2023-01-31T16:40:46.298Z,6.72
2023-01-31T16:43:51.098Z,6.57
2023-01-31T16:46:53.745Z,6.53
2023-01-31T16:50:15.154Z,6.40
2023-01-31T16:53:32.045Z,6.33
2023-01-31T16:56:33.524Z,6.34
2023-01-31T16:59:34.905Z,6.49
2023-01-31T17:02:40.748Z,6.37
2023-01-31T17:05:47.238Z,6.21
2023-01-31T17:08:49.212Z,6.23
2023-01-31T17:11:53.252Z,6.23
2023-01-31T17:14:55.503Z,6.12
2023-01-31T17:17:57.062Z,6.03
2023-01-31T17:20:58.603Z,6.10
2023-01-31T17:24:00.111Z,6.01
2023-01-31T17:27:01.630Z,5.90
2023-01-31T17:30:03.569Z,5.84
2023-01-31T17:33:05.082Z,5.78
2023-01-31T17:36:08.749Z,5.66
2023-01-31T17:39:10.289Z,5.58
2023-01-31T17:42:18.097Z,5.49
2023-01-31T17:45:20.241Z,5.47
2023-01-31T17:48:26.512Z,5.40
2023-01-31T17:51:28.682Z,5.33
2023-01-31T17:54:30.176Z,5.33
2023-01-31T17:57:31.670Z,5.37
2023-01-31T18:00:33.156Z,5.27
2023-01-31T18:03:34.667Z,5.26
2023-01-31T18:06:36.374Z,5.19
2023-01-31T18:09:37.853Z,5.17
2023-01-31T18:12:39.462Z,5.11
2023-01-31T18:15:41.023Z,5.08
2023-01-31T18:18:42.965Z,5.00
2023-01-31T18:21:54.433Z,5.08
2023-01-31T18:24:56.343Z,4.99
2023-01-31T18:27:58.649Z,5.27
2023-01-31T18:31:08.286Z,5.25
2023-01-31T18:34:09.843Z,5.14
2023-01-31T18:37:11.304Z,5.31
2023-01-31T18:40:12.803Z,5.37
2023-01-31T18:43:14.237Z,5.61
2023-01-31T18:46:15.943Z,5.68
2023-01-31T18:49:17.400Z,5.72
2023-01-31T18:52:19.158Z,5.77
2023-01-31T18:55:20.854Z,5.71
2023-01-31T18:58:22.457Z,5.63
2023-01-31T19:01:26.417Z,5.48
2023-01-31T19:04:27.943Z,5.50
2023-01-31T19:07:32.131Z,5.48
2023-01-31T19:10:34.404Z,5.45
2023-01-31T19:13:36.686Z,5.36
2023-01-31T19:16:39.933Z,5.41
2023-01-31T19:19:41.627Z,5.40
2023-01-31T19:22:43.040Z,5.29
2023-01-31T19:25:44.553Z,5.19
2023-01-31T19:28:47.151Z,5.19
2023-01-31T19:31:48.777Z,5.21
2023-01-31T19:34:51.449Z,5.05
2023-01-31T19:37:54.395Z,4.95
2023-01-31T19:41:07.302Z,5.02
2023-01-31T19:44:09.494Z,5.01
2023-01-31T19:47:10.984Z,4.97
2023-01-31T19:50:12.545Z,4.83
2023-01-31T19:53:14.010Z,4.74
2023-01-31T19:56:16.463Z,4.74
2023-01-31T19:59:17.905Z,4.69
2023-01-31T20:02:19.506Z,4.58
2023-01-31T20:05:21.336Z,4.66
2023-01-31T20:08:22.986Z,4.56
2023-01-31T20:11:26.807Z,4.50
2023-01-31T20:14:28.256Z,4.53
2023-01-31T20:17:29.790Z,4.46
2023-01-31T20:20:31.278Z,4.38
2023-01-31T20:23:33.092Z,4.29
2023-01-31T20:26:34.678Z,4.33
2023-01-31T20:29:42.322Z,4.49
2023-01-31T20:32:47.780Z,4.27
2023-01-31T20:35:59.299Z,4.23
2023-01-31T20:39:00.793Z,4.29
2023-01-31T20:42:04.688Z,4.33
2023-01-31T20:45:07.029Z,4.20
2023-01-31T20:48:08.523Z,4.14
2023-01-31T20:51:10.103Z,4.19
2023-01-31T20:54:11.594Z,4.21
2023-01-31T20:57:13.278Z,4.17
2023-01-31T21:00:15.275Z,4.19
2023-01-31T21:03:16.711Z,4.12
2023-01-31T21:06:18.173Z,4.14
2023-01-31T21:09:22.050Z,4.04
2023-01-31T21:12:24.519Z,4.19
2023-01-31T21:15:29.133Z,4.10
2023-01-31T21:18:40.226Z,4.20
2023-01-31T21:21:42.031Z,4.13
2023-01-31T21:24:43.822Z,4.14
2023-01-31T21:27:45.248Z,4.24
2023-01-31T21:30:57.987Z,4.22
2023-01-31T21:34:10.224Z,4.04
2023-01-31T21:37:12.819Z,4.26
2023-01-31T21:40:14.518Z,4.27
2023-01-31T21:43:16.009Z,4.23
2023-01-31T21:46:17.657Z,4.19
2023-01-31T21:49:19.196Z,4.16
2023-01-31T21:52:20.693Z,4.23
2023-01-31T21:55:22.141Z,4.22
2023-01-31T21:58:23.595Z,4.24
2023-01-31T22:01:30.949Z,4.12
2023-01-31T22:04:32.624Z,4.13
2023-01-31T22:07:34.073Z,4.21
2023-01-31T22:10:35.496Z,4.12
2023-01-31T22:13:37.930Z,4.08
2023-01-31T22:16:40.651Z,4.05
2023-01-31T22:19:42.107Z,3.94
2023-01-31T22:22:43.620Z,4.05
2023-01-31T22:25:45.144Z,3.97
2023-01-31T22:28:46.625Z,4.09
2023-01-31T22:31:48.160Z,4.00
2023-01-31T22:34:49.661Z,4.10
2023-01-31T22:37:51.134Z,3.98
2023-01-31T22:40:57.207Z,4.13
2023-01-31T22:43:58.720Z,4.25
2023-01-31T22:47:00.639Z,4.04
2023-01-31T22:50:02.109Z,4.14
2023-01-31T22:53:03.616Z,4.40
2023-01-31T22:56:07.601Z,4.50
2023-01-31T22:59:09.633Z,4.51
2023-01-31T23:02:11.119Z,4.49
2023-01-31T23:05:12.637Z,4.74
2023-01-31T23:08:15.281Z,4.73
2023-01-31T23:11:17.850Z,4.86
2023-01-31T23:14:19.426Z,4.89
2023-01-31T23:17:20.905Z,4.85
2023-01-31T23:20:23.032Z,4.91
2023-01-31T23:23:26.269Z,4.90
2023-01-31T23:26:27.737Z,4.92
2023-01-31T23:29:29.276Z,4.91
2023-01-31T23:32:30.782Z,5.11
2023-01-31T23:35:32.214Z,5.06
2023-01-31T23:38:33.693Z,5.08
2023-01-31T23:41:35.188Z,5.13
2023-01-31T23:44:36.636Z,5.08
2023-01-31T23:47:38.093Z,5.28
2023-01-31T23:50:39.597Z,5.25
2023-01-31T23:53:41.102Z,5.32
2023-01-31T23:56:42.637Z,5.45
2023-01-31T23:59:44.098Z,5.47
